sensor_id;sensor_type;location;lat;lon;timestamp;pressure;altitude;pressure_sealevel;temperature;humidity
41306;BME280;27051;50.376;19.152;2023-02-03T17:53:25;97283.79;;;3.94;72.26
41306;BME280;27051;50.376;19.152;2023-02-03T17:59:05;97298.33;;;3.98;72.32
41306;BME280;27051;50.376;19.152;2023-02-03T18:01:55;97305.58;;;3.96;72.48
41306;BME280;27051;50.376;19.152;2023-02-03T18:04:31;97303.83;;;3.94;72.47
41306;BME280;27051;50.376;19.152;2023-02-03T18:09:49;97307.74;;;3.93;72.40
41306;BME280;27051;50.376;19.152;2023-02-03T18:12:19;97315.07;;;3.92;72.49
41306;BME280;27051;50.376;19.152;2023-02-03T18:15:06;97314.12;;;3.93;72.38
41306;BME280;27051;50.376;19.152;2023-02-03T18:17:45;97318.08;;;3.95;72.51
41306;BME280;27051;50.376;19.152;2023-02-03T18:20:16;97318.60;;;3.96;72.39
41306;BME280;27051;50.376;19.152;2023-02-03T18:23:03;97320.44;;;3.95;72.34
41306;BME280;27051;50.376;19.152;2023-02-03T18:25:33;97318.41;;;3.94;72.39
41306;BME280;27051;50.376;19.152;2023-02-03T18:28:06;97312.59;;;3.95;72.43
41306;BME280;27051;50.376;19.152;2023-02-03T18:30:44;97320.26;;;3.96;72.49
41306;BME280;27051;50.376;19.152;2023-02-03T18:33:20;97330.52;;;4.01;72.27
41306;BME280;27051;50.376;19.152;2023-02-03T18:36:08;97334.55;;;4.05;72.49
41306;BME280;27051;50.376;19.152;2023-02-03T18:38:36;97342.86;;;4.07;72.29
41306;BME280;27051;50.376;19.152;2023-02-03T18:41:27;97341.38;;;4.09;72.30
41306;BME280;27051;50.376;19.152;2023-02-03T18:44:09;97346.86;;;4.10;72.17
41306;BME280;27051;50.376;19.152;2023-02-03T18:47:04;97351.02;;;4.10;72.14
41306;BME280;27051;50.376;19.152;2023-02-03T18:50:11;97359.06;;;4.11;72.25
41306;BME280;27051;50.376;19.152;2023-02-03T18:52:40;97353.49;;;4.07;72.14
41306;BME280;27051;50.376;19.152;2023-02-03T18:55:26;97355.22;;;4.05;72.21
41306;BME280;27051;50.376;19.152;2023-02-03T18:57:59;97355.63;;;4.09;72.28
41306;BME280;27051;50.376;19.152;2023-02-03T19:00:49;97360.65;;;4.13;72.23
41306;BME280;27051;50.376;19.152;2023-02-03T19:03:59;97370.17;;;4.12;72.11
41306;BME280;27051;50.376;19.152;2023-02-03T19:06:28;97367.92;;;4.04;72.16
41306;BME280;27051;50.376;19.152;2023-02-03T19:08:56;97364.42;;;3.98;72.19
41306;BME280;27051;50.376;19.152;2023-02-03T19:11:29;97363.98;;;3.97;72.22
41306;BME280;27051;50.376;19.152;2023-02-03T19:14:20;97362.52;;;3.95;72.08
41306;BME280;27051;50.376;19.152;2023-02-03T19:16:46;97360.38;;;3.90;71.97
41306;BME280;27051;50.376;19.152;2023-02-03T19:19:13;97361.39;;;3.88;72.13
41306;BME280;27051;50.376;19.152;2023-02-03T19:21:49;97357.88;;;3.90;72.20
41306;BME280;27051;50.376;19.152;2023-02-03T19:24:25;97356.76;;;3.92;72.02
41306;BME280;27051;50.376;19.152;2023-02-03T19:26:53;97363.58;;;3.88;71.93
41306;BME280;27051;50.376;19.152;2023-02-03T19:29:20;97357.09;;;3.84;71.95
41306;BME280;27051;50.376;19.152;2023-02-03T19:32:09;97364.42;;;3.83;72.03
41306;BME280;27051;50.376;19.152;2023-02-03T19:34:44;97368.02;;;3.77;71.96
41306;BME280;27051;50.376;19.152;2023-02-03T19:43:11;97377.02;;;3.78;71.89
41306;BME280;27051;50.376;19.152;2023-02-03T19:46:00;97373.95;;;3.75;71.88
41306;BME280;27051;50.376;19.152;2023-02-03T19:48:27;97368.97;;;3.69;71.81
41306;BME280;27051;50.376;19.152;2023-02-03T19:51:17;97366.38;;;3.65;71.77
41306;BME280;27051;50.376;19.152;2023-02-03T19:53:50;97366.52;;;3.64;71.67
41306;BME280;27051;50.376;19.152;2023-02-03T19:56:45;97366.46;;;3.62;71.83
41306;BME280;27051;50.376;19.152;2023-02-03T19:59:31;97371.65;;;3.59;71.50
41306;BME280;27051;50.376;19.152;2023-02-03T20:02:15;97370.09;;;3.55;71.60
41306;BME280;27051;50.376;19.152;2023-02-03T20:05:02;97370.67;;;3.55;71.64
41306;BME280;27051;50.376;19.152;2023-02-03T20:07:29;97371.77;;;3.52;71.62
41306;BME280;27051;50.376;19.152;2023-02-03T20:09:57;97371.35;;;3.51;71.47
41306;BME280;27051;50.376;19.152;2023-02-03T20:12:24;97369.30;;;3.36;71.32
41306;BME280;27051;50.376;19.152;2023-02-03T20:14:56;97366.35;;;3.31;71.73
41306;BME280;27051;50.376;19.152;2023-02-03T20:20:13;97358.73;;;3.34;71.93
41306;BME280;27051;50.376;19.152;2023-02-03T20:23:01;97354.44;;;3.33;71.99
41306;BME280;27051;50.376;19.152;2023-02-03T20:25:27;97359.11;;;3.29;72.03
41306;BME280;27051;50.376;19.152;2023-02-03T20:27:57;97358.89;;;3.28;72.38
41306;BME280;27051;50.376;19.152;2023-02-03T20:30:44;97356.35;;;3.33;72.52
41306;BME280;27051;50.376;19.152;2023-02-03T20:33:12;97357.98;;;3.36;72.53
41306;BME280;27051;50.376;19.152;2023-02-03T20:35:47;97356.58;;;3.39;72.68
41306;BME280;27051;50.376;19.152;2023-02-03T20:38:23;97360.45;;;3.40;72.67
41306;BME280;27051;50.376;19.152;2023-02-03T20:40:53;97362.99;;;3.41;72.62
41306;BME280;27051;50.376;19.152;2023-02-03T20:44:04;97366.96;;;3.45;72.70
41306;BME280;27051;50.376;19.152;2023-02-03T20:46:52;97366.91;;;3.47;72.70
41306;BME280;27051;50.376;19.152;2023-02-03T20:49:18;97360.73;;;3.53;72.77
41306;BME280;27051;50.376;19.152;2023-02-03T20:51:57;97357.83;;;3.54;72.53
41306;BME280;27051;50.376;19.152;2023-02-03T20:55:04;97351.55;;;3.56;72.69
41306;BME280;27051;50.376;19.152;2023-02-03T20:57:48;97349.67;;;3.57;72.72
41306;BME280;27051;50.376;19.152;2023-02-03T21:00:57;97352.23;;;3.56;72.61
41306;BME280;27051;50.376;19.152;2023-02-03T21:10:06;97358.09;;;3.62;73.36
41306;BME280;27051;50.376;19.152;2023-02-03T21:15:58;97362.22;;;3.62;73.48
41306;BME280;27051;50.376;19.152;2023-02-03T21:18:58;97367.73;;;3.61;73.35
41306;BME280;27051;50.376;19.152;2023-02-03T21:21:57;97368.90;;;3.66;73.35
41306;BME280;27051;50.376;19.152;2023-02-03T21:24:28;97366.48;;;3.71;73.11
41306;BME280;27051;50.376;19.152;2023-02-03T21:36:40;97360.97;;;3.77;73.03
41306;BME280;27051;50.376;19.152;2023-02-03T21:39:42;97356.95;;;3.80;72.96
41306;BME280;27051;50.376;19.152;2023-02-03T21:42:30;97356.35;;;3.82;72.96
41306;BME280;27051;50.376;19.152;2023-02-03T21:45:43;97357.34;;;3.83;72.91
41306;BME280;27051;50.376;19.152;2023-02-03T22:01:19;97349.63;;;3.80;72.99
41306;BME280;27051;50.376;19.152;2023-02-03T22:07:53;97351.30;;;3.79;73.10
41306;BME280;27051;50.376;19.152;2023-02-03T22:10:04;97349.31;;;3.83;73.22
41306;BME280;27051;50.376;19.152;2023-02-03T22:12:34;97349.77;;;3.86;73.21
41306;BME280;27051;50.376;19.152;2023-02-03T22:15:34;97342.94;;;3.88;73.03
41306;BME280;27051;50.376;19.152;2023-02-03T22:18:12;97343.98;;;3.95;73.21
41306;BME280;27051;50.376;19.152;2023-02-03T22:24:04;97339.60;;;3.99;72.87
41306;BME280;27051;50.376;19.152;2023-02-03T22:27:06;97341.90;;;4.05;73.01
41306;BME280;27051;50.376;19.152;2023-02-03T22:29:36;97343.71;;;4.08;72.94
41306;BME280;27051;50.376;19.152;2023-02-03T22:32:47;97352.55;;;4.09;72.88
41306;BME280;27051;50.376;19.152;2023-02-03T22:39:00;97343.52;;;4.07;73.04
41306;BME280;27051;50.376;19.152;2023-02-03T22:41:46;97342.71;;;4.07;72.96
41306;BME280;27051;50.376;19.152;2023-02-03T22:44:40;97343.14;;;4.04;73.03
41306;BME280;27051;50.376;19.152;2023-02-03T22:47:26;97347.05;;;4.08;73.21
41306;BME280;27051;50.376;19.152;2023-02-03T22:50:14;97349.80;;;4.10;73.14
41306;BME280;27051;50.376;19.152;2023-02-03T22:52:44;97346.64;;;4.12;73.07
41306;BME280;27051;50.376;19.152;2023-02-03T22:55:52;97344.64;;;4.13;73.02
41306;BME280;27051;50.376;19.152;2023-02-03T23:01:56;97341.80;;;4.11;72.99
41306;BME280;27051;50.376;19.152;2023-02-03T23:04:46;97340.64;;;4.07;73.11
41306;BME280;27051;50.376;19.152;2023-02-03T23:07:49;97337.86;;;4.08;73.15
41306;BME280;27051;50.376;19.152;2023-02-03T23:13:44;97334.61;;;4.03;73.11
41306;BME280;27051;50.376;19.152;2023-02-03T23:16:52;97324.51;;;4.01;73.15
41306;BME280;27051;50.376;19.152;2023-02-03T23:20:00;97321.28;;;4.00;73.22
41306;BME280;27051;50.376;19.152;2023-02-03T23:22:54;97317.92;;;3.95;73.32
41306;BME280;27051;50.376;19.152;2023-02-03T23:25:49;97316.48;;;3.93;73.46
41306;BME280;27051;50.376;19.152;2023-02-03T23:28:27;97312.56;;;3.92;73.48
41306;BME280;27051;50.376;19.152;2023-02-03T23:34:22;97304.05;;;3.95;73.62
41306;BME280;27051;50.376;19.152;2023-02-03T23:37:27;97301.69;;;3.90;73.34
41306;BME280;27051;50.376;19.152;2023-02-03T23:40:04;97295.77;;;3.87;73.58
41306;BME280;27051;50.376;19.152;2023-02-03T23:42:49;97293.14;;;3.85;73.47
41306;BME280;27051;50.376;19.152;2023-02-03T23:45:37;97289.14;;;3.89;73.60
41306;BME280;27051;50.376;19.152;2023-02-03T23:54:31;97284.74;;;3.89;73.42
41306;BME280;27051;50.376;19.152;2023-02-03T23:57:21;97287.08;;;3.84;73.37
